createdAt,value
2023-05-25T00:00:16.977Z,68.97
2023-05-25T00:03:05.009Z,68.93
2023-05-25T00:05:33.064Z,69.18
2023-05-25T00:08:01.334Z,69.12
2023-05-25T00:10:29.465Z,69.24
2023-05-25T00:12:57.345Z,69.44
2023-05-25T00:15:25.115Z,69.41
2023-05-25T00:17:54.872Z,69.57
2023-05-25T00:20:23.875Z,69.35
2023-05-25T00:22:52.577Z,69.42
2023-05-25T00:25:21.111Z,69.40
2023-05-25T00:27:48.984Z,69.30
2023-05-25T00:30:16.932Z,69.11
2023-05-25T00:32:45.741Z,69.07
2023-05-25T00:35:13.864Z,69.23
2023-05-25T00:37:41.890Z,69.06
2023-05-25T00:40:11.471Z,68.75
2023-05-25T00:42:41.831Z,69.05
2023-05-25T00:45:10.212Z,69.10
2023-05-25T00:47:39.767Z,69.23
2023-05-25T00:50:09.646Z,69.13
2023-05-25T00:52:37.818Z,69.27
2023-05-25T00:55:07.243Z,69.14
2023-05-25T00:57:38.113Z,68.77
2023-05-25T01:00:11.581Z,69.00
2023-05-25T01:02:40.083Z,69.26
2023-05-25T01:05:09.736Z,68.96
2023-05-25T01:07:38.359Z,69.08
2023-05-25T01:10:07.248Z,68.97
2023-05-25T01:12:39.240Z,69.10
2023-05-25T01:15:10.306Z,69.12
2023-05-25T01:17:38.461Z,68.96
2023-05-25T01:20:11.317Z,68.89
2023-05-25T01:22:57.890Z,69.30
2023-05-25T01:25:29.379Z,69.35
2023-05-25T01:28:03.683Z,69.27
2023-05-25T01:30:33.388Z,69.27
2023-05-25T01:33:01.740Z,69.13
2023-05-25T01:35:29.778Z,69.21
2023-05-25T01:37:58.728Z,69.37
2023-05-25T01:40:27.784Z,69.38
2023-05-25T01:42:55.633Z,69.30
2023-05-25T01:45:23.892Z,69.23
2023-05-25T01:48:06.575Z,69.52
2023-05-25T01:50:41.360Z,69.58
2023-05-25T01:53:22.800Z,69.61
2023-05-25T01:56:02.534Z,69.63
2023-05-25T01:58:37.318Z,69.51
2023-05-25T02:01:05.704Z,69.49
2023-05-25T02:03:33.601Z,69.81
2023-05-25T02:06:01.948Z,69.56
2023-05-25T02:08:31.044Z,69.73
2023-05-25T02:10:59.085Z,69.78
2023-05-25T02:13:26.957Z,69.92
2023-05-25T02:15:54.793Z,69.99
2023-05-25T02:18:22.772Z,69.97
2023-05-25T02:20:51.549Z,69.93
2023-05-25T02:23:19.360Z,70.41
2023-05-25T02:25:47.152Z,70.33
2023-05-25T02:28:18.024Z,70.49
2023-05-25T02:30:46.100Z,70.20
2023-05-25T02:33:14.581Z,70.59
2023-05-25T02:35:42.787Z,70.66
2023-05-25T02:38:11.057Z,70.33
2023-05-25T02:40:38.983Z,70.45
2023-05-25T02:43:10.153Z,70.43
2023-05-25T02:45:38.192Z,70.19
2023-05-25T02:48:06.453Z,70.38
2023-05-25T02:50:34.546Z,70.43
2023-05-25T02:53:02.646Z,70.50
2023-05-25T02:55:30.642Z,70.66
2023-05-25T02:58:00.209Z,70.41
2023-05-25T03:00:28.700Z,70.52
2023-05-25T03:02:56.808Z,70.83
2023-05-25T03:05:24.842Z,70.85
2023-05-25T03:07:52.860Z,71.19
2023-05-25T03:10:20.776Z,71.11
2023-05-25T03:12:50.774Z,71.40
2023-05-25T03:15:18.820Z,71.36
2023-05-25T03:17:46.769Z,71.31
2023-05-25T03:20:16.782Z,71.48
2023-05-25T03:22:44.975Z,71.60
2023-05-25T03:25:13.340Z,71.53
2023-05-25T03:27:43.112Z,71.41
2023-05-25T03:30:14.332Z,71.31
2023-05-25T03:32:42.509Z,71.57
2023-05-25T03:35:10.710Z,71.33
2023-05-25T03:37:38.832Z,71.42
2023-05-25T03:40:09.813Z,71.24
2023-05-25T03:42:38.716Z,71.22
2023-05-25T03:45:09.420Z,71.32
2023-05-25T03:47:37.520Z,71.32
2023-05-25T03:50:07.427Z,71.16
2023-05-25T03:52:35.399Z,71.31
2023-05-25T03:55:05.456Z,71.43
2023-05-25T03:57:33.373Z,71.14
2023-05-25T04:00:01.623Z,71.11
2023-05-25T04:02:29.775Z,70.73
2023-05-25T04:04:57.861Z,71.19
2023-05-25T04:07:27.722Z,71.01
2023-05-25T04:09:58.276Z,71.08
2023-05-25T04:12:27.323Z,70.63
2023-05-25T04:14:55.458Z,70.99
2023-05-25T04:17:25.375Z,71.19
2023-05-25T04:19:53.495Z,70.97
2023-05-25T04:22:21.400Z,70.80
2023-05-25T04:24:49.551Z,71.11
2023-05-25T04:27:17.624Z,70.88
2023-05-25T04:29:45.842Z,71.26
2023-05-25T04:32:17.924Z,71.09
2023-05-25T04:34:46.939Z,71.06
2023-05-25T04:37:14.877Z,70.80
2023-05-25T04:39:43.089Z,70.83
2023-05-25T04:42:11.044Z,70.66
2023-05-25T04:44:40.154Z,71.03
2023-05-25T04:47:08.114Z,71.04
2023-05-25T04:49:36.778Z,70.92
2023-05-25T04:52:05.518Z,71.15
2023-05-25T04:54:33.439Z,70.85
2023-05-25T04:57:02.556Z,71.13
2023-05-25T04:59:30.643Z,71.09
2023-05-25T05:01:58.798Z,70.94
2023-05-25T05:04:26.705Z,70.86
2023-05-25T05:06:56.131Z,70.98
2023-05-25T05:09:26.036Z,70.96
2023-05-25T05:11:53.956Z,71.18
2023-05-25T05:14:21.782Z,71.26
2023-05-25T05:16:49.791Z,71.09
2023-05-25T05:19:17.757Z,71.33
2023-05-25T05:21:45.799Z,71.12
2023-05-25T05:24:13.716Z,70.86
2023-05-25T05:26:56.401Z,70.89
2023-05-25T05:29:27.070Z,70.90
2023-05-25T05:31:56.109Z,70.85
2023-05-25T05:34:24.235Z,70.86
2023-05-25T05:36:57.393Z,71.32
2023-05-25T05:39:28.139Z,71.41
2023-05-25T05:41:56.283Z,71.30
2023-05-25T05:44:27.822Z,71.16
2023-05-25T05:47:01.202Z,70.75
2023-05-25T05:49:29.923Z,71.04
2023-05-25T05:51:58.216Z,70.72
2023-05-25T05:54:28.257Z,70.95
2023-05-25T05:56:56.447Z,70.38
2023-05-25T05:59:24.418Z,70.74
2023-05-25T06:01:52.310Z,70.93
2023-05-25T06:04:20.225Z,70.58
2023-05-25T06:06:48.060Z,70.85
2023-05-25T06:09:16.112Z,71.29
2023-05-25T06:11:43.971Z,70.85
2023-05-25T06:14:11.889Z,71.15
2023-05-25T06:16:39.871Z,70.93
2023-05-25T06:19:07.796Z,71.00
2023-05-25T06:21:37.656Z,70.72
2023-05-25T06:24:06.237Z,71.10
2023-05-25T06:26:34.333Z,71.08
2023-05-25T06:29:02.557Z,71.08
2023-05-25T06:31:31.030Z,70.79
2023-05-25T06:33:59.011Z,71.08
2023-05-25T06:36:27.448Z,71.43
2023-05-25T06:38:55.418Z,70.98
2023-05-25T06:41:23.251Z,70.89
2023-05-25T06:43:51.069Z,70.98
2023-05-25T06:46:19.137Z,70.64
2023-05-25T06:48:47.581Z,70.99
2023-05-25T06:51:15.468Z,70.60
2023-05-25T06:53:44.610Z,70.71
2023-05-25T06:56:12.638Z,70.72
2023-05-25T06:58:40.454Z,71.19
2023-05-25T07:01:08.262Z,71.00
2023-05-25T07:03:36.461Z,71.05
2023-05-25T07:06:05.132Z,71.28
2023-05-25T07:08:33.111Z,71.04
2023-05-25T07:11:01.204Z,70.94
2023-05-25T07:13:29.054Z,70.89
2023-05-25T07:15:56.859Z,70.83
2023-05-25T07:18:24.790Z,70.78
2023-05-25T07:20:53.553Z,71.08
2023-05-25T07:23:24.256Z,71.06
2023-05-25T07:25:52.323Z,70.84
2023-05-25T07:28:20.293Z,71.12
2023-05-25T07:30:48.218Z,71.01
2023-05-25T07:33:16.028Z,71.19
2023-05-25T07:35:44.264Z,71.05
2023-05-25T07:38:12.240Z,71.23
2023-05-25T07:40:40.290Z,71.19
2023-05-25T07:43:08.885Z,71.25
2023-05-25T07:45:36.813Z,71.30
2023-05-25T07:48:07.327Z,71.09
2023-05-25T07:50:35.308Z,71.03
2023-05-25T07:53:03.432Z,71.03
2023-05-25T07:55:31.405Z,71.01
2023-05-25T07:57:59.598Z,71.00
2023-05-25T08:00:27.795Z,71.29
2023-05-25T08:02:56.478Z,71.41
2023-05-25T08:05:24.521Z,71.29
2023-05-25T08:07:52.939Z,71.29
2023-05-25T08:10:21.283Z,71.24
2023-05-25T08:12:51.722Z,71.17
2023-05-25T08:15:20.600Z,71.24
2023-05-25T08:17:51.101Z,71.21
2023-05-25T08:20:19.133Z,71.28
2023-05-25T08:22:47.251Z,71.02
2023-05-25T08:25:15.313Z,70.90
2023-05-25T08:27:43.298Z,70.77
2023-05-25T08:30:11.667Z,70.80
2023-05-25T08:32:39.584Z,70.73
2023-05-25T08:35:08.109Z,70.82
2023-05-25T08:37:36.244Z,70.95
2023-05-25T08:40:06.168Z,70.68
2023-05-25T08:42:34.091Z,70.89
2023-05-25T08:45:02.498Z,70.72
2023-05-25T08:47:33.887Z,70.75
2023-05-25T08:50:04.013Z,70.39
2023-05-25T08:52:33.605Z,70.62
2023-05-25T08:55:04.807Z,70.27
2023-05-25T08:58:03.283Z,70.33
2023-05-25T09:00:43.243Z,70.00
2023-05-25T09:03:18.599Z,69.99
2023-05-25T09:05:47.501Z,70.12
2023-05-25T09:08:15.868Z,70.31
2023-05-25T09:10:43.934Z,70.20
2023-05-25T09:13:20.378Z,70.25
2023-05-25T09:15:50.240Z,70.31
2023-05-25T09:18:18.259Z,70.04
2023-05-25T09:20:47.424Z,69.42
2023-05-25T09:23:17.284Z,69.60
2023-05-25T09:25:46.606Z,69.59
2023-05-25T09:28:26.208Z,69.23
2023-05-25T09:30:56.281Z,69.57
2023-05-25T09:33:24.333Z,69.31
2023-05-25T09:35:52.513Z,69.50
2023-05-25T09:38:21.640Z,69.77
2023-05-25T09:40:49.939Z,69.54
2023-05-25T09:43:32.415Z,69.06
2023-05-25T09:46:06.148Z,68.57
2023-05-25T09:48:34.767Z,68.50
2023-05-25T09:51:02.900Z,68.71
2023-05-25T09:53:32.113Z,68.66
2023-05-25T09:56:01.942Z,68.18
2023-05-25T09:58:31.729Z,68.07
2023-05-25T10:00:59.587Z,67.73
2023-05-25T10:03:27.831Z,67.68
2023-05-25T10:05:56.098Z,67.33
2023-05-25T10:08:28.598Z,66.76
2023-05-25T10:10:57.076Z,67.34
2023-05-25T10:13:27.304Z,66.52
2023-05-25T10:15:55.658Z,66.48
2023-05-25T10:18:26.912Z,66.83
2023-05-25T10:21:04.156Z,67.40
2023-05-25T10:23:47.984Z,66.80
2023-05-25T10:26:20.190Z,66.87
2023-05-25T10:28:50.841Z,66.35
2023-05-25T10:31:18.952Z,66.33
2023-05-25T10:33:50.567Z,66.02
2023-05-25T10:36:20.895Z,66.24
2023-05-25T10:38:51.510Z,65.90
2023-05-25T10:41:21.133Z,65.69
2023-05-25T10:43:49.506Z,65.54
2023-05-25T10:46:18.822Z,65.32
2023-05-25T10:48:52.028Z,65.44
2023-05-25T10:51:21.065Z,65.21
2023-05-25T10:54:00.474Z,65.26
2023-05-25T10:56:28.457Z,65.00
2023-05-25T10:58:57.208Z,64.99
2023-05-25T11:01:25.241Z,64.86
2023-05-25T11:03:53.316Z,65.30
2023-05-25T11:06:22.788Z,65.20
2023-05-25T11:08:59.455Z,65.01
2023-05-25T11:11:42.362Z,64.90
2023-05-25T11:14:24.373Z,64.64
2023-05-25T11:17:15.625Z,64.31
2023-05-25T11:19:52.314Z,64.53
2023-05-25T11:22:22.085Z,64.26
2023-05-25T11:24:53.803Z,64.37
2023-05-25T11:27:41.814Z,64.41
2023-05-25T11:30:10.799Z,64.57
2023-05-25T11:32:49.215Z,64.25
2023-05-25T11:35:17.568Z,64.26
2023-05-25T11:37:51.146Z,64.47
2023-05-25T11:40:22.919Z,64.63
2023-05-25T11:42:52.914Z,64.39
2023-05-25T11:45:22.804Z,64.51
2023-05-25T11:47:51.296Z,63.89
2023-05-25T11:50:19.396Z,63.58
2023-05-25T11:52:47.219Z,63.52
2023-05-25T11:55:15.321Z,63.63
2023-05-25T11:57:43.286Z,63.60
2023-05-25T12:00:12.159Z,63.44
2023-05-25T12:02:42.065Z,63.12
2023-05-25T12:05:11.966Z,63.46
2023-05-25T12:07:44.934Z,63.45
2023-05-25T12:10:16.492Z,63.26
2023-05-25T12:12:50.150Z,63.45
2023-05-25T12:15:22.052Z,63.16
2023-05-25T12:17:51.147Z,63.01
2023-05-25T12:20:19.939Z,63.22
2023-05-25T12:22:48.071Z,63.16
2023-05-25T12:25:19.946Z,63.20
2023-05-25T12:27:47.969Z,62.89
2023-05-25T12:30:15.909Z,62.86
2023-05-25T12:33:02.844Z,63.11
2023-05-25T12:35:47.609Z,63.35
2023-05-25T12:38:19.882Z,63.09
2023-05-25T12:40:48.177Z,63.39
2023-05-25T12:43:17.832Z,63.54
2023-05-25T12:45:45.987Z,63.15
2023-05-25T12:48:14.179Z,62.95
2023-05-25T12:50:57.668Z,63.02
2023-05-25T12:53:27.336Z,63.12
2023-05-25T12:56:03.599Z,63.14
2023-05-25T12:58:31.456Z,63.02
2023-05-25T13:00:59.418Z,62.90
2023-05-25T13:03:27.901Z,62.47
2023-05-25T13:06:01.508Z,62.41
2023-05-25T13:08:29.817Z,62.33
2023-05-25T13:10:57.789Z,62.16
2023-05-25T13:13:25.795Z,62.26
2023-05-25T13:15:54.097Z,62.41
2023-05-25T13:18:22.074Z,62.37
2023-05-25T13:20:51.981Z,62.39
2023-05-25T13:23:22.453Z,62.36
2023-05-25T13:25:50.388Z,62.46
2023-05-25T13:28:18.149Z,62.48
2023-05-25T13:30:46.419Z,62.15
2023-05-25T13:33:14.713Z,62.30
2023-05-25T13:35:57.955Z,62.62
2023-05-25T13:38:26.306Z,62.25
2023-05-25T13:40:54.190Z,62.05
2023-05-25T13:43:22.125Z,62.03
2023-05-25T13:45:50.101Z,61.78
2023-05-25T13:48:18.313Z,61.11
2023-05-25T13:50:46.745Z,61.24
2023-05-25T13:53:14.792Z,61.45
2023-05-25T13:55:43.382Z,61.75
2023-05-25T13:58:11.513Z,61.49
2023-05-25T14:00:39.514Z,61.20
2023-05-25T14:03:07.749Z,60.99
2023-05-25T14:05:36.040Z,60.92
2023-05-25T14:08:05.102Z,61.09
2023-05-25T14:10:33.156Z,60.43
2023-05-25T14:13:01.030Z,60.73
2023-05-25T14:15:29.013Z,60.90
2023-05-25T14:17:57.645Z,60.10
2023-05-25T14:20:26.457Z,60.51
2023-05-25T14:22:54.846Z,61.03
2023-05-25T14:25:22.871Z,61.08
2023-05-25T14:27:50.718Z,60.90
2023-05-25T14:30:18.646Z,60.82
2023-05-25T14:32:46.746Z,60.79
2023-05-25T14:35:14.600Z,60.45
2023-05-25T14:37:42.563Z,60.84
2023-05-25T14:40:11.332Z,60.70
2023-05-25T14:42:39.182Z,60.61
2023-05-25T14:45:10.678Z,60.28
2023-05-25T14:47:39.356Z,59.84
2023-05-25T14:50:07.849Z,59.93
2023-05-25T14:52:36.721Z,59.48
2023-05-25T14:55:04.907Z,59.75
2023-05-25T14:57:32.719Z,59.77
2023-05-25T15:00:00.959Z,59.42
2023-05-25T15:02:29.211Z,59.59
2023-05-25T15:04:57.365Z,59.60
2023-05-25T15:07:25.331Z,59.72
2023-05-25T15:09:53.296Z,59.77
2023-05-25T15:12:21.444Z,59.65
2023-05-25T15:14:49.282Z,59.66
2023-05-25T15:17:17.128Z,59.80
2023-05-25T15:19:44.950Z,59.84
2023-05-25T15:22:13.024Z,59.43
2023-05-25T15:24:40.889Z,59.24
2023-05-25T15:27:09.346Z,58.91
2023-05-25T15:29:37.365Z,58.86
2023-05-25T15:32:05.911Z,58.89
2023-05-25T15:34:33.826Z,59.04
2023-05-25T15:37:02.355Z,59.05
2023-05-25T15:39:30.293Z,59.02
2023-05-25T15:41:58.217Z,58.65
2023-05-25T15:44:26.063Z,58.82
2023-05-25T15:46:54.134Z,58.96
2023-05-25T15:49:21.996Z,58.71
2023-05-25T15:51:52.871Z,58.81
2023-05-25T15:54:20.839Z,58.71
2023-05-25T15:56:48.696Z,58.28
2023-05-25T15:59:16.545Z,58.46
2023-05-25T16:01:44.495Z,58.12
2023-05-25T16:04:12.691Z,57.73
2023-05-25T16:06:43.695Z,58.08
2023-05-25T16:09:11.515Z,57.89
2023-05-25T16:11:39.308Z,57.99
2023-05-25T16:14:07.211Z,57.80
2023-05-25T16:16:35.120Z,57.98
2023-05-25T16:19:03.268Z,57.68
2023-05-25T16:21:31.199Z,58.07
2023-05-25T16:23:59.096Z,58.16
2023-05-25T16:26:27.437Z,58.31
2023-05-25T16:28:55.415Z,58.26
2023-05-25T16:31:24.081Z,58.10
2023-05-25T16:33:52.141Z,57.86
2023-05-25T16:36:19.945Z,57.96
2023-05-25T16:38:47.913Z,58.12
2023-05-25T16:41:15.732Z,58.07
2023-05-25T16:43:43.815Z,58.27
2023-05-25T16:46:11.888Z,57.91
2023-05-25T16:48:39.862Z,58.08
2023-05-25T16:51:07.906Z,57.97
2023-05-25T16:53:35.724Z,57.98
2023-05-25T16:56:03.824Z,58.28
2023-05-25T16:58:32.095Z,58.40
2023-05-25T17:00:59.902Z,58.67
2023-05-25T17:03:28.016Z,58.51
2023-05-25T17:05:55.977Z,58.21
2023-05-25T17:08:25.640Z,58.45
2023-05-25T17:10:53.779Z,58.48
2023-05-25T17:13:21.837Z,58.61
2023-05-25T17:15:49.866Z,58.75
2023-05-25T17:18:17.971Z,59.30
2023-05-25T17:20:46.383Z,59.41
2023-05-25T17:23:17.060Z,59.86
2023-05-25T17:25:45.329Z,60.39
2023-05-25T17:28:13.417Z,60.37
2023-05-25T17:30:41.268Z,60.39
2023-05-25T17:33:09.297Z,60.86
2023-05-25T17:35:37.172Z,61.43
2023-05-25T17:38:05.767Z,61.21
2023-05-25T17:40:33.602Z,61.32
2023-05-25T17:43:01.614Z,61.56
2023-05-25T17:45:29.495Z,61.33
2023-05-25T17:47:58.550Z,61.28
2023-05-25T17:50:26.680Z,61.11
2023-05-25T17:52:55.721Z,60.92
2023-05-25T17:55:24.483Z,61.09
2023-05-25T17:57:52.636Z,61.36
2023-05-25T18:00:23.066Z,61.50
2023-05-25T18:02:52.908Z,61.80
2023-05-25T18:05:21.020Z,62.14
2023-05-25T18:07:49.116Z,62.21
2023-05-25T18:10:16.981Z,62.19
2023-05-25T18:12:46.597Z,62.39
2023-05-25T18:15:15.612Z,62.58
2023-05-25T18:17:43.624Z,62.50
2023-05-25T18:20:11.867Z,63.21
2023-05-25T18:22:39.917Z,62.82
2023-05-25T18:25:08.272Z,62.87
2023-05-25T18:27:39.875Z,62.99
2023-05-25T18:30:09.810Z,63.01
2023-05-25T18:32:37.888Z,62.88
2023-05-25T18:35:06.555Z,62.80
2023-05-25T18:37:36.022Z,62.84
2023-05-25T18:40:04.339Z,63.22
2023-05-25T18:42:35.086Z,63.11
2023-05-25T18:45:03.405Z,63.05
2023-05-25T18:47:31.525Z,62.95
2023-05-25T18:50:01.978Z,63.10
2023-05-25T18:52:29.956Z,63.27
2023-05-25T18:54:59.188Z,63.54
2023-05-25T18:57:28.984Z,63.73
2023-05-25T18:59:56.994Z,63.73
2023-05-25T19:02:25.006Z,63.97
2023-05-25T19:04:53.403Z,64.05
2023-05-25T19:07:21.436Z,64.15
2023-05-25T19:09:49.768Z,64.09
2023-05-25T19:12:17.847Z,64.03
2023-05-25T19:14:45.959Z,64.12
2023-05-25T19:17:14.281Z,64.22
2023-05-25T19:19:43.568Z,64.40
2023-05-25T19:22:11.529Z,64.48
2023-05-25T19:24:42.734Z,64.77
2023-05-25T19:27:12.543Z,64.52
2023-05-25T19:29:43.736Z,64.77
2023-05-25T19:32:11.674Z,65.14
2023-05-25T19:34:39.673Z,64.97
2023-05-25T19:37:11.652Z,64.91
2023-05-25T19:39:39.991Z,65.20
2023-05-25T19:42:09.437Z,65.14
2023-05-25T19:44:40.681Z,65.04
2023-05-25T19:47:08.866Z,65.23
2023-05-25T19:49:39.609Z,65.40
2023-05-25T19:52:07.756Z,65.14
2023-05-25T19:54:35.859Z,65.36
2023-05-25T19:57:04.122Z,65.30
2023-05-25T19:59:32.166Z,65.55
2023-05-25T20:02:00.189Z,65.56
2023-05-25T20:04:30.294Z,65.78
2023-05-25T20:06:59.377Z,65.74
2023-05-25T20:09:31.121Z,65.83
2023-05-25T20:12:00.114Z,66.02
2023-05-25T20:14:34.006Z,66.10
2023-05-25T20:17:02.276Z,66.08
2023-05-25T20:19:30.342Z,66.01
2023-05-25T20:22:02.029Z,66.03
2023-05-25T20:24:32.414Z,65.88
2023-05-25T20:27:01.841Z,66.11
2023-05-25T20:29:29.733Z,66.33
2023-05-25T20:31:59.213Z,66.30
2023-05-25T20:34:28.295Z,66.46
2023-05-25T20:36:56.391Z,66.50
2023-05-25T20:39:26.381Z,66.61
2023-05-25T20:41:54.405Z,66.88
2023-05-25T20:44:22.267Z,67.07
2023-05-25T20:46:51.314Z,67.10
2023-05-25T20:49:19.101Z,67.06
2023-05-25T20:51:50.882Z,67.08
2023-05-25T20:54:18.938Z,66.82
2023-05-25T20:56:48.252Z,67.06
2023-05-25T20:59:16.593Z,66.98
2023-05-25T21:01:44.837Z,67.02
2023-05-25T21:04:13.272Z,67.13
2023-05-25T21:06:41.629Z,67.35
2023-05-25T21:09:09.659Z,67.20
2023-05-25T21:11:37.901Z,67.54
2023-05-25T21:14:06.365Z,67.67
2023-05-25T21:16:35.172Z,67.55
2023-05-25T21:19:03.285Z,67.79
2023-05-25T21:21:34.187Z,67.64
2023-05-25T21:24:02.707Z,67.44
2023-05-25T21:26:31.382Z,67.60
2023-05-25T21:28:59.519Z,67.54
2023-05-25T21:31:27.625Z,67.88
2023-05-25T21:33:56.148Z,67.86
2023-05-25T21:36:24.130Z,67.94
2023-05-25T21:38:52.192Z,68.08
2023-05-25T21:41:20.720Z,68.19
2023-05-25T21:43:48.848Z,68.39
2023-05-25T21:46:17.005Z,68.39
2023-05-25T21:48:45.079Z,68.51
2023-05-25T21:51:13.292Z,68.38
2023-05-25T21:53:41.509Z,68.36
2023-05-25T21:56:09.467Z,68.46
2023-05-25T21:58:37.427Z,68.67
2023-05-25T22:01:05.673Z,68.86
2023-05-25T22:03:35.249Z,69.01
2023-05-25T22:06:03.310Z,69.03
2023-05-25T22:08:31.254Z,69.28
2023-05-25T22:10:59.052Z,69.34
2023-05-25T22:13:27.076Z,69.34
2023-05-25T22:15:54.860Z,69.30
2023-05-25T22:18:22.682Z,69.25
2023-05-25T22:20:51.384Z,69.35
2023-05-25T22:23:19.635Z,69.32
2023-05-25T22:25:47.729Z,69.37
2023-05-25T22:28:15.723Z,69.53
2023-05-25T22:30:43.701Z,69.82
2023-05-25T22:33:12.207Z,69.81
2023-05-25T22:35:40.136Z,69.92
2023-05-25T22:38:08.179Z,69.88
2023-05-25T22:40:36.127Z,70.13
2023-05-25T22:43:12.594Z,69.92
2023-05-25T22:45:40.875Z,70.01
2023-05-25T22:48:09.376Z,70.12
2023-05-25T22:50:37.256Z,70.22
2023-05-25T22:53:05.132Z,70.21
2023-05-25T22:55:33.122Z,70.00
2023-05-25T22:58:01.064Z,70.06
2023-05-25T23:00:28.881Z,70.00
2023-05-25T23:02:57.602Z,70.13
2023-05-25T23:05:26.034Z,69.81
2023-05-25T23:07:53.826Z,69.98
2023-05-25T23:10:21.752Z,70.02
2023-05-25T23:12:50.583Z,70.13
2023-05-25T23:15:18.718Z,70.22
2023-05-25T23:17:46.684Z,70.23
2023-05-25T23:20:15.165Z,70.31
2023-05-25T23:22:43.635Z,70.18
2023-05-25T23:25:11.574Z,70.23
2023-05-25T23:27:39.573Z,70.42
2023-05-25T23:30:08.133Z,70.53
2023-05-25T23:32:36.763Z,70.61
2023-05-25T23:35:05.162Z,70.37
2023-05-25T23:37:33.170Z,70.52
2023-05-25T23:40:58.108Z,70.57
2023-05-25T23:43:26.917Z,70.36
2023-05-25T23:45:54.941Z,70.34
2023-05-25T23:48:22.868Z,70.18
2023-05-25T23:50:50.972Z,70.11
2023-05-25T23:53:18.755Z,70.12
2023-05-25T23:55:47.004Z,70.06
2023-05-25T23:58:15.130Z,70.25
